createdAt,value
2018-01-31T01:52:20.764Z,62.22
2018-01-31T01:54:08.641Z,63.02
2018-01-31T01:56:36.152Z,63.26
2018-01-31T01:59:03.694Z,63.59
2018-01-31T02:01:31.201Z,63.66
2018-01-31T02:03:58.770Z,63.13
2018-01-31T02:06:26.289Z,62.80
2018-01-31T02:08:53.800Z,62.84
2018-01-31T02:11:21.340Z,63.23
2018-01-31T02:13:48.845Z,63.12
2018-01-31T02:16:16.679Z,63.40
2018-01-31T02:18:44.193Z,62.66
2018-01-31T02:21:11.700Z,62.51
2018-01-31T02:23:39.231Z,62.61
2018-01-31T02:26:06.741Z,62.57
2018-01-31T02:28:34.576Z,62.77
2018-01-31T02:31:02.096Z,62.74
2018-01-31T02:33:29.604Z,62.57
2018-01-31T02:35:57.140Z,62.53
2018-01-31T02:38:36.636Z,61.98
2018-01-31T02:41:04.189Z,61.22
2018-01-31T02:43:31.702Z,61.00
2018-01-31T02:45:59.477Z,60.86
2018-01-31T02:48:26.982Z,61.01
2018-01-31T02:51:07.053Z,60.70
2018-01-31T02:53:34.565Z,59.83
2018-01-31T02:56:02.069Z,60.20
2018-01-31T02:58:29.604Z,59.81
2018-01-31T03:00:57.115Z,60.36
2018-01-31T03:03:24.663Z,60.43
2018-01-31T03:05:52.181Z,59.74
2018-01-31T03:08:19.686Z,60.27
2018-01-31T03:10:47.221Z,60.27
2018-01-31T03:13:14.728Z,59.91
2018-01-31T03:15:42.284Z,59.01
2018-01-31T03:18:09.793Z,59.26
2018-01-31T03:20:37.304Z,58.89
2018-01-31T03:23:04.841Z,58.37
2018-01-31T03:25:32.843Z,59.27
2018-01-31T03:28:00.392Z,58.97
2018-01-31T03:30:27.901Z,59.13
2018-01-31T03:32:55.413Z,59.24
2018-01-31T03:35:22.941Z,59.43
2018-01-31T03:37:50.444Z,59.48
2018-01-31T03:40:18.280Z,58.24
2018-01-31T03:42:45.788Z,58.78
2018-01-31T03:45:13.327Z,58.73
2018-01-31T03:47:40.869Z,58.84
2018-01-31T03:50:08.377Z,60.17
2018-01-31T03:52:36.268Z,59.54
2018-01-31T03:55:03.827Z,58.62
2018-01-31T03:57:31.336Z,59.63
2018-01-31T03:59:58.868Z,59.41
2018-01-31T04:02:26.380Z,59.12
2018-01-31T04:04:53.924Z,59.26
2018-01-31T04:07:21.456Z,58.90
2018-01-31T04:09:48.969Z,59.42
2018-01-31T04:12:16.496Z,59.28
2018-01-31T04:14:44.006Z,59.67
2018-01-31T04:17:11.757Z,58.97
2018-01-31T04:19:39.264Z,58.89
2018-01-31T04:22:06.773Z,58.01
2018-01-31T04:24:34.305Z,58.49
2018-01-31T04:27:01.812Z,58.56
2018-01-31T04:29:29.346Z,59.21
2018-01-31T04:31:56.856Z,59.15
2018-01-31T04:34:24.573Z,58.36
2018-01-31T04:36:52.107Z,58.26
2018-01-31T04:39:19.612Z,58.02
2018-01-31T04:41:47.140Z,57.84
2018-01-31T04:44:14.649Z,57.87
2018-01-31T04:46:42.468Z,58.63
2018-01-31T04:49:09.973Z,58.22
2018-01-31T04:51:37.485Z,57.77
2018-01-31T04:54:05.036Z,58.40
2018-01-31T04:56:32.548Z,58.86
2018-01-31T04:59:00.104Z,58.46
2018-01-31T05:01:27.608Z,58.95
2018-01-31T05:03:55.121Z,58.37
2018-01-31T05:06:22.649Z,58.61
2018-01-31T05:08:50.157Z,58.36
2018-01-31T05:11:18.044Z,58.58
2018-01-31T05:13:45.600Z,58.20
2018-01-31T05:16:13.109Z,58.10
2018-01-31T05:18:44.572Z,58.72
2018-01-31T05:21:12.077Z,58.20
2018-01-31T05:23:40.699Z,58.69
2018-01-31T05:26:08.204Z,58.50
2018-01-31T05:28:35.709Z,58.29
2018-01-31T05:31:03.240Z,58.79
2018-01-31T05:33:30.749Z,58.80
2018-01-31T05:35:58.461Z,58.91
2018-01-31T05:38:25.970Z,59.25
2018-01-31T05:40:53.473Z,59.27
2018-01-31T05:43:21.025Z,59.79
2018-01-31T05:45:48.536Z,59.76
2018-01-31T05:48:16.261Z,60.48
2018-01-31T05:50:43.773Z,60.03
2018-01-31T05:53:11.629Z,59.88
2018-01-31T05:55:40.117Z,59.72
2018-01-31T05:58:07.626Z,59.95
2018-01-31T06:00:35.172Z,59.75
2018-01-31T06:03:02.676Z,59.23
2018-01-31T06:05:30.189Z,58.81
2018-01-31T06:08:04.245Z,58.25
2018-01-31T06:10:31.756Z,57.75
2018-01-31T06:12:59.309Z,58.10
2018-01-31T06:15:31.632Z,57.35
2018-01-31T06:17:59.173Z,57.08
2018-01-31T06:20:26.685Z,57.61
2018-01-31T06:22:54.192Z,57.29
2018-01-31T06:25:21.730Z,57.12
2018-01-31T06:27:49.242Z,56.71
2018-01-31T06:30:17.294Z,56.56
2018-01-31T06:32:44.828Z,56.15
2018-01-31T06:35:12.336Z,55.79
2018-01-31T06:37:39.857Z,55.81
2018-01-31T06:40:07.388Z,55.10
2018-01-31T06:42:34.932Z,56.04
2018-01-31T06:45:02.437Z,55.81
2018-01-31T06:47:29.964Z,55.28
2018-01-31T06:49:57.468Z,54.88
2018-01-31T06:52:24.973Z,54.24
2018-01-31T06:54:52.505Z,55.13
2018-01-31T06:57:20.013Z,54.97
2018-01-31T06:59:47.517Z,54.55
2018-01-31T07:02:15.052Z,55.45
2018-01-31T07:04:42.556Z,54.48
2018-01-31T07:07:10.062Z,54.31
2018-01-31T07:09:37.841Z,54.46
2018-01-31T07:12:05.344Z,54.99
2018-01-31T07:14:32.865Z,55.06
2018-01-31T07:17:15.240Z,54.95
2018-01-31T07:19:42.744Z,54.92
2018-01-31T07:22:10.289Z,54.91
2018-01-31T07:24:37.807Z,55.21
2018-01-31T07:27:05.312Z,54.84
2018-01-31T07:29:32.845Z,54.51
2018-01-31T07:32:00.356Z,54.81
2018-01-31T07:34:28.238Z,54.90
2018-01-31T07:36:55.740Z,54.68
2018-01-31T07:39:23.249Z,54.45
2018-01-31T07:41:50.801Z,55.32
2018-01-31T07:44:18.317Z,54.88
2018-01-31T07:46:46.029Z,55.31
2018-01-31T07:49:13.604Z,54.17
2018-01-31T07:51:41.081Z,54.44
2018-01-31T07:54:08.612Z,55.32
2018-01-31T07:56:36.127Z,54.71
2018-01-31T07:59:04.040Z,54.55
2018-01-31T08:01:31.545Z,54.58
2018-01-31T08:03:59.061Z,55.04
2018-01-31T08:06:27.470Z,54.23
2018-01-31T08:08:54.977Z,54.53
2018-01-31T08:11:22.604Z,53.89
2018-01-31T08:13:50.140Z,55.29
2018-01-31T08:16:17.645Z,55.09
2018-01-31T08:18:45.200Z,54.70
2018-01-31T08:21:12.724Z,53.96
2018-01-31T08:23:40.553Z,53.46
2018-01-31T08:26:11.407Z,54.38
2018-01-31T08:28:38.917Z,54.29
2018-01-31T08:31:06.452Z,54.88
2018-01-31T08:33:34.048Z,54.51
2018-01-31T08:36:01.619Z,54.03
2018-01-31T08:38:29.424Z,54.23
2018-01-31T08:40:57.892Z,54.42
2018-01-31T08:43:25.428Z,53.14
2018-01-31T08:45:52.936Z,54.22
2018-01-31T08:48:20.640Z,53.25
2018-01-31T08:50:48.165Z,53.51
2018-01-31T08:53:15.676Z,53.63
2018-01-31T08:55:43.209Z,54.00
2018-01-31T08:58:10.723Z,53.38
2018-01-31T09:00:38.282Z,53.71
2018-01-31T09:03:05.796Z,54.69
2018-01-31T09:05:33.308Z,53.83
2018-01-31T09:08:00.852Z,54.05
2018-01-31T09:10:28.369Z,53.48
2018-01-31T09:12:56.231Z,54.00
2018-01-31T09:15:24.668Z,52.85
2018-01-31T09:17:52.187Z,53.44
2018-01-31T09:20:19.734Z,52.97
2018-01-31T09:22:47.245Z,52.62
2018-01-31T09:25:14.953Z,52.08
2018-01-31T09:27:42.476Z,52.02
2018-01-31T09:30:09.993Z,53.49
2018-01-31T09:32:37.528Z,52.36
2018-01-31T09:35:05.044Z,51.62
2018-01-31T09:37:32.604Z,52.10
2018-01-31T09:40:00.123Z,50.98
2018-01-31T09:42:27.636Z,51.06
2018-01-31T09:44:55.387Z,50.67
2018-01-31T09:47:22.905Z,49.62
2018-01-31T09:49:50.449Z,47.46
2018-01-31T09:52:17.957Z,48.26
2018-01-31T09:54:45.472Z,48.13
2018-01-31T09:57:13.023Z,46.76
2018-01-31T09:59:40.532Z,46.67
2018-01-31T10:02:08.086Z,44.71
2018-01-31T10:04:35.604Z,44.53
2018-01-31T10:07:03.116Z,46.28
2018-01-31T10:09:30.656Z,46.72
2018-01-31T10:11:58.173Z,48.37
2018-01-31T10:14:25.717Z,48.90
2018-01-31T10:16:53.228Z,50.80
2018-01-31T10:19:20.740Z,50.27
2018-01-31T10:21:48.322Z,50.80
2018-01-31T10:24:15.836Z,50.80
2018-01-31T10:26:43.768Z,51.51
2018-01-31T10:29:11.284Z,51.33
2018-01-31T10:31:38.796Z,50.79
2018-01-31T10:34:06.336Z,50.22
2018-01-31T10:36:33.853Z,49.74
2018-01-31T10:39:01.425Z,50.40
2018-01-31T10:41:28.985Z,50.37
2018-01-31T10:43:56.493Z,49.90
2018-01-31T10:46:24.041Z,49.63
2018-01-31T10:48:51.592Z,49.63
2018-01-31T10:51:19.124Z,48.91
2018-01-31T10:58:41.758Z,48.20
2018-01-31T11:01:09.276Z,48.50
2018-01-31T11:03:37.008Z,48.91
2018-01-31T11:06:04.524Z,49.61
2018-01-31T11:08:32.040Z,48.83
2018-01-31T11:10:59.584Z,48.37
2018-01-31T11:13:27.105Z,48.46
2018-01-31T11:15:54.669Z,48.26
2018-01-31T11:18:22.185Z,50.24
2018-01-31T11:20:49.704Z,50.49
2018-01-31T11:23:17.257Z,51.62
2018-01-31T11:25:44.789Z,51.97
2018-01-31T11:28:13.243Z,51.25
2018-01-31T11:30:41.704Z,51.61
2018-01-31T11:33:10.204Z,50.96
2018-01-31T11:35:38.787Z,51.59
2018-01-31T11:38:07.276Z,51.54
2018-01-31T11:40:35.238Z,51.72
2018-01-31T11:43:03.820Z,51.35
2018-01-31T11:45:32.296Z,50.72
2018-01-31T11:48:00.771Z,50.75
2018-01-31T11:50:28.284Z,51.20
2018-01-31T11:52:56.703Z,50.48
2018-01-31T11:55:24.221Z,50.04
2018-01-31T11:57:51.754Z,50.20
2018-01-31T12:00:19.296Z,49.95
2018-01-31T12:02:47.775Z,50.98
2018-01-31T12:05:15.713Z,50.38
2018-01-31T12:07:43.228Z,50.13
2018-01-31T12:10:11.659Z,51.27
2018-01-31T12:12:48.173Z,51.21
2018-01-31T12:15:24.824Z,51.63
2018-01-31T12:17:52.380Z,52.15
2018-01-31T12:23:34.465Z,52.38
2018-01-31T12:26:13.740Z,51.98
2018-01-31T12:28:48.733Z,52.01
2018-01-31T12:31:28.172Z,52.08
2018-01-31T12:34:07.446Z,51.36
2018-01-31T12:36:46.781Z,51.13
2018-01-31T12:39:13.780Z,51.82
2018-01-31T12:41:40.757Z,52.74
2018-01-31T12:44:07.758Z,52.65
2018-01-31T12:46:47.220Z,51.02
2018-01-31T12:49:26.684Z,51.24
2018-01-31T12:55:05.526Z,50.32
2018-01-31T13:00:41.145Z,50.48
2018-01-31T13:03:20.509Z,49.92
2018-01-31T13:06:00.357Z,49.36
2018-01-31T13:08:39.738Z,48.33
2018-01-31T13:11:19.086Z,49.24
2018-01-31T13:16:59.468Z,49.48
2018-01-31T13:22:49.733Z,50.84
2018-01-31T13:25:29.068Z,50.81
2018-01-31T13:28:14.046Z,51.29
2018-01-31T13:33:59.520Z,52.34
2018-01-31T13:36:39.798Z,51.99
2018-01-31T13:39:19.153Z,51.23
2018-01-31T13:41:58.623Z,50.97
2018-01-31T13:44:38.063Z,51.01
2018-01-31T13:47:17.393Z,50.97
2018-01-31T13:49:56.684Z,51.17
2018-01-31T13:52:36.058Z,51.87
2018-01-31T13:55:15.597Z,51.58
2018-01-31T13:57:54.987Z,51.38
2018-01-31T14:03:41.328Z,51.18
2018-01-31T14:06:20.894Z,51.50
2018-01-31T14:09:00.308Z,51.20
2018-01-31T14:14:43.743Z,51.33
2018-01-31T14:20:34.673Z,52.24
2018-01-31T14:23:14.126Z,51.80
2018-01-31T14:25:53.525Z,51.69
2018-01-31T14:28:32.914Z,51.32
2018-01-31T14:31:12.349Z,52.87
2018-01-31T14:33:51.860Z,52.70
2018-01-31T14:36:18.905Z,53.25
2018-01-31T14:38:45.885Z,53.11
2018-01-31T14:41:12.911Z,52.88
2018-01-31T14:43:39.944Z,51.93
2018-01-31T14:46:06.913Z,52.28
2018-01-31T14:48:33.904Z,51.12
2018-01-31T14:51:00.869Z,52.09
2018-01-31T14:53:27.867Z,52.35
2018-01-31T14:55:54.878Z,52.27
2018-01-31T14:58:21.861Z,52.79
2018-01-31T15:00:48.865Z,52.75
2018-01-31T15:03:15.906Z,52.72
2018-01-31T15:05:43.141Z,53.17
2018-01-31T15:08:10.109Z,52.99
2018-01-31T15:10:37.087Z,53.61
2018-01-31T15:13:04.077Z,54.38
2018-01-31T15:15:31.053Z,54.33
2018-01-31T15:17:58.296Z,54.08
2018-01-31T15:20:25.266Z,53.99
2018-01-31T15:22:52.288Z,54.39
2018-01-31T15:25:19.336Z,53.59
2018-01-31T15:27:46.329Z,53.51
2018-01-31T15:30:13.614Z,53.73
2018-01-31T15:32:40.629Z,53.90
2018-01-31T15:35:07.728Z,53.41
2018-01-31T15:37:34.775Z,53.49
2018-01-31T15:40:01.741Z,53.53
2018-01-31T15:42:29.048Z,54.23
2018-01-31T15:44:56.019Z,55.21
2018-01-31T15:47:22.981Z,54.17
2018-01-31T15:49:50.012Z,54.68
2018-01-31T15:52:16.981Z,54.62
2018-01-31T15:54:44.189Z,55.19
2018-01-31T15:57:11.171Z,54.01
2018-01-31T15:59:38.132Z,54.98
2018-01-31T16:02:05.193Z,55.08
2018-01-31T16:04:32.191Z,55.78
2018-01-31T16:06:59.317Z,55.32
2018-01-31T16:09:26.285Z,55.60
2018-01-31T16:11:53.844Z,55.32
2018-01-31T16:14:20.912Z,55.43
2018-01-31T16:16:48.470Z,55.10
2018-01-31T16:19:27.825Z,55.63
2018-01-31T16:21:55.379Z,54.87
2018-01-31T16:24:23.109Z,54.66
2018-01-31T16:26:50.669Z,55.51
2018-01-31T16:29:30.196Z,55.11
2018-01-31T16:32:09.647Z,54.30
2018-01-31T16:34:37.197Z,54.56
2018-01-31T16:37:04.749Z,54.78
2018-01-31T16:39:32.303Z,54.29
2018-01-31T16:41:59.800Z,53.80
2018-01-31T16:44:27.312Z,53.69
2018-01-31T16:46:54.898Z,54.09
2018-01-31T16:49:22.459Z,54.67
2018-01-31T16:51:50.019Z,54.43
2018-01-31T16:54:17.579Z,54.24
2018-01-31T16:56:45.239Z,54.30
2018-01-31T16:59:13.005Z,55.26
2018-01-31T17:01:40.519Z,55.04
2018-01-31T17:04:08.225Z,55.53
2018-01-31T17:06:35.781Z,56.32
2018-01-31T17:09:03.341Z,57.18
2018-01-31T17:11:30.910Z,57.76
2018-01-31T17:13:58.459Z,58.48
2018-01-31T17:16:26.121Z,59.74
2018-01-31T17:18:53.685Z,61.43
2018-01-31T17:21:21.238Z,62.26
2018-01-31T17:23:49.199Z,63.14
2018-01-31T17:26:21.888Z,62.60
2018-01-31T17:28:49.650Z,63.54
2018-01-31T17:31:17.310Z,63.09
2018-01-31T17:33:44.959Z,62.95
2018-01-31T17:36:12.527Z,63.04
2018-01-31T17:38:40.193Z,61.98
2018-01-31T17:41:08.060Z,62.59
2018-01-31T17:43:35.618Z,62.73
2018-01-31T17:46:03.161Z,63.41
2018-01-31T17:48:30.685Z,63.09
2018-01-31T17:50:58.270Z,62.94
2018-01-31T17:53:26.165Z,63.94
2018-01-31T17:55:53.743Z,63.98
2018-01-31T17:58:21.383Z,64.19
2018-01-31T18:00:48.984Z,64.07
2018-01-31T18:03:16.573Z,64.42
2018-01-31T18:05:44.236Z,64.69
2018-01-31T18:08:11.745Z,65.78
2018-01-31T18:10:39.327Z,65.90
2018-01-31T18:13:06.888Z,66.11
2018-01-31T18:15:34.388Z,66.96
2018-01-31T18:18:02.375Z,66.48
2018-01-31T18:20:29.929Z,67.34
2018-01-31T18:22:57.453Z,67.61
2018-01-31T18:25:24.996Z,67.17
2018-01-31T18:27:52.502Z,67.62
2018-01-31T18:30:20.095Z,67.66
2018-01-31T18:32:47.724Z,67.86
2018-01-31T18:35:15.283Z,68.40
2018-01-31T18:37:43.663Z,68.10
2018-01-31T18:40:11.311Z,68.59
2018-01-31T18:42:39.296Z,68.73
2018-01-31T18:45:06.850Z,69.03
2018-01-31T18:47:34.514Z,68.88
2018-01-31T18:50:02.174Z,68.66
2018-01-31T18:52:29.934Z,68.74
2018-01-31T18:54:57.740Z,69.08
2018-01-31T18:57:25.275Z,68.01
2018-01-31T18:59:53.334Z,68.70
2018-01-31T19:02:21.188Z,69.50
2018-01-31T19:04:48.831Z,69.53
2018-01-31T19:07:16.786Z,69.72
2018-01-31T19:09:44.421Z,69.98
2018-01-31T19:12:11.985Z,70.41
2018-01-31T19:14:40.531Z,70.34
2018-01-31T19:17:09.057Z,70.48
2018-01-31T19:19:37.389Z,70.51
2018-01-31T19:22:05.005Z,70.60
2018-01-31T19:24:33.019Z,70.61
2018-01-31T19:27:01.765Z,70.15
2018-01-31T19:29:29.878Z,70.60
2018-01-31T19:31:57.746Z,70.36
2018-01-31T19:34:25.740Z,70.85
2018-01-31T19:36:54.199Z,70.70
2018-01-31T19:39:22.330Z,71.17
2018-01-31T19:41:50.335Z,71.30
2018-01-31T19:44:18.405Z,71.09
2018-01-31T19:46:46.415Z,70.79
2018-01-31T19:49:14.281Z,71.53
2018-01-31T19:51:42.121Z,71.97
2018-01-31T19:54:10.235Z,71.15
2018-01-31T19:59:12.266Z,71.53
2018-01-31T20:01:40.246Z,71.40
2018-01-31T20:04:07.994Z,71.60
2018-01-31T20:06:35.964Z,71.30
2018-01-31T20:09:03.829Z,71.41
2018-01-31T20:11:31.902Z,71.21
2018-01-31T20:13:59.674Z,70.77
2018-01-31T20:16:27.637Z,70.82
2018-01-31T20:18:55.603Z,71.77
2018-01-31T20:21:23.574Z,71.10
2018-01-31T20:23:51.898Z,71.28
2018-01-31T20:26:19.833Z,71.84
2018-01-31T20:28:47.698Z,72.07
2018-01-31T20:31:15.735Z,71.87
2018-01-31T20:33:43.589Z,71.46
2018-01-31T20:36:11.587Z,71.67
2018-01-31T20:38:39.456Z,71.75
2018-01-31T20:41:08.048Z,72.08
2018-01-31T20:43:36.008Z,72.42
2018-01-31T20:46:04.386Z,71.63
2018-01-31T20:48:32.150Z,71.44
2018-01-31T20:50:59.811Z,71.53
2018-01-31T20:53:27.949Z,71.55
2018-01-31T20:55:55.754Z,71.66
2018-01-31T20:58:23.616Z,71.38
2018-01-31T21:00:51.592Z,71.40
2018-01-31T21:03:19.358Z,71.82
2018-01-31T21:05:47.112Z,71.94
2018-01-31T21:08:15.025Z,72.42
2018-01-31T21:10:42.755Z,72.03
2018-01-31T21:13:10.508Z,71.72
2018-01-31T21:15:38.374Z,71.83
2018-01-31T21:18:06.146Z,71.94
2018-01-31T21:20:34.038Z,71.80
2018-01-31T21:23:01.773Z,72.03
2018-01-31T21:25:29.753Z,71.80
2018-01-31T21:27:57.606Z,71.55
2018-01-31T21:30:25.372Z,72.54
2018-01-31T21:32:53.179Z,72.42
2018-01-31T21:35:21.963Z,72.46
2018-01-31T21:37:49.686Z,71.75
2018-01-31T21:40:17.457Z,72.08
2018-01-31T21:42:45.108Z,72.60
2018-01-31T21:45:12.673Z,72.10
2018-01-31T21:47:41.361Z,72.63
2018-01-31T21:50:09.429Z,72.37
2018-01-31T21:52:37.113Z,72.00
2018-01-31T21:55:04.953Z,71.96
2018-01-31T22:00:38.164Z,71.86
2018-01-31T22:03:06.235Z,72.96
2018-01-31T22:05:34.510Z,72.12
2018-01-31T22:08:02.275Z,72.07
2018-01-31T22:10:30.636Z,72.46
2018-01-31T22:12:58.315Z,72.30
2018-01-31T22:15:27.638Z,72.54
2018-01-31T22:17:55.482Z,72.41
2018-01-31T22:20:23.246Z,71.90
2018-01-31T22:22:51.112Z,71.80
2018-01-31T22:25:18.773Z,72.55
2018-01-31T22:27:46.537Z,72.54
2018-01-31T22:30:14.096Z,72.72
2018-01-31T22:32:41.757Z,72.65
2018-01-31T22:35:09.419Z,72.02
2018-01-31T22:37:36.979Z,71.79
2018-01-31T22:40:06.994Z,72.33
2018-01-31T22:42:34.559Z,72.44
2018-01-31T22:45:04.587Z,72.73
2018-01-31T22:47:33.113Z,72.93
2018-01-31T22:50:00.622Z,72.79
2018-01-31T22:52:28.581Z,73.22
2018-01-31T22:54:57.165Z,72.95
2018-01-31T22:57:24.723Z,72.87
2018-01-31T22:59:52.223Z,73.15
2018-01-31T23:02:20.661Z,73.10
2018-01-31T23:04:48.223Z,73.35
2018-01-31T23:07:15.720Z,73.00
2018-01-31T23:09:43.251Z,72.34
2018-01-31T23:12:16.272Z,72.58
2018-01-31T23:14:49.849Z,73.68
2018-01-31T23:17:22.829Z,73.26
2018-01-31T23:19:50.777Z,73.76
2018-01-31T23:22:18.268Z,73.53
2018-01-31T23:24:45.794Z,73.36
2018-01-31T23:27:13.321Z,73.38
2018-01-31T23:29:40.821Z,73.22
2018-01-31T23:32:08.368Z,72.94
2018-01-31T23:34:35.864Z,72.87
2018-01-31T23:37:03.385Z,72.82
2018-01-31T23:39:30.944Z,73.52
2018-01-31T23:41:58.444Z,73.02
2018-01-31T23:44:26.369Z,72.69
2018-01-31T23:46:53.931Z,72.64
2018-01-31T23:49:21.490Z,72.79
2018-01-31T23:51:49.049Z,72.19
2018-01-31T23:54:16.545Z,72.53
2018-01-31T23:56:44.279Z,72.58
2018-01-31T23:59:11.828Z,72.95
